USTRANSCOM 7584


MUGM
Guantánamo Bay Naval Air Station
Guantanamo, CU
KNGU
Norfolk Naval Station (Chambers Field)
Norfolk, US

Activity Log

Date Flight Route Aircraft Duration
12/24/2019 CMB7584 SOUTP EASTP ZIN Y350 ZQA BR65V ZFP WOLFO AR18 PANAL AR3 CLB ISO DRONE2 B752 3h 02m

Route Details

Aircraft Information
Primary: Boeing 757-200SF
Backup: Not Available
Route Data
Distance: 1025.27nm
Sched. Duration: 3h 29m
Avg. Duration: 3h 02m (-28m)
Times Flown: 1
Recm'd Route: SOUTP EASTP ZIN Y350 ZQA BR65V ZFP WOLFO AR18 PANAL AR3 CLB ISO DRONE2
Planned Altitude: 38,000ft
Origin Wx: MUGM 272256Z 23013KT 10SM FEW025 BKN050 BKN075 28/24 A3002 RMK SLP164 VCSH NW-NE T2 SET T02780239
Dest. Wx: KNGU 272259Z 27012G22KT 10SM CLR 09/M08 A2994 RMK AO2 SLP138 T00891083
Notes: USTRANSCOM CONTRACT FLIGHT | OVERFLIGHT OF CUBA PROHIBITED | SOUTP & EASTP FIXES MANDATORY

Financial History
Total Freight: 19,054lbs
Average Load: 19,054lbs/flt
Fuel Used: 20,303lbs
Avg. Fuel Used: 20,303lbs/flt
Fuel Expense: $16,242
Avg. Fuel Expense: $16,242
Avg. Fuel Cost: $0.80/lbs
Total Gross Income: $32,773
Pilot Pay: $229
Total Expenses: $3,591
Total Revenue: $12,247
Average Revenue: $32,772.88